createdAt,value
2022-12-31T00:01:36.353Z,2.96
2022-12-31T00:03:36.323Z,3.00
2022-12-31T00:05:35.151Z,3.07
2022-12-31T00:09:33.236Z,3.26
2022-12-31T00:11:33.258Z,3.35
2022-12-31T00:13:31.506Z,3.39
2022-12-31T00:15:30.083Z,3.42
2022-12-31T00:17:28.394Z,3.61
2022-12-31T00:19:26.670Z,3.63
2022-12-31T00:21:24.731Z,3.55
2022-12-31T00:23:23.233Z,3.54
2022-12-31T00:25:21.509Z,3.49
2022-12-31T00:27:22.374Z,3.47
2022-12-31T00:29:20.612Z,3.46
2022-12-31T00:31:20.822Z,3.40
2022-12-31T00:33:19.086Z,3.37
2022-12-31T00:35:17.231Z,3.32
2022-12-31T00:37:15.562Z,3.34
2022-12-31T00:39:13.773Z,3.41
2022-12-31T00:41:12.467Z,3.45
2022-12-31T00:43:12.202Z,3.45
2022-12-31T00:45:11.144Z,3.42
2022-12-31T00:47:09.361Z,3.43
2022-12-31T00:49:07.665Z,3.42
2022-12-31T00:51:08.441Z,3.43
2022-12-31T00:53:06.637Z,3.43
2022-12-31T00:55:06.100Z,3.44
2022-12-31T00:57:04.396Z,3.44
2022-12-31T00:59:04.056Z,3.59
2022-12-31T01:01:09.917Z,3.55
2022-12-31T01:03:09.034Z,3.45
2022-12-31T01:05:08.886Z,3.32
2022-12-31T01:07:07.043Z,3.24
2022-12-31T01:09:06.552Z,3.19
2022-12-31T01:11:19.621Z,3.03
2022-12-31T01:13:18.007Z,2.83
2022-12-31T01:15:17.847Z,2.79
2022-12-31T01:17:17.304Z,2.69
2022-12-31T01:19:17.632Z,2.60
2022-12-31T01:21:17.008Z,2.55
2022-12-31T01:23:15.342Z,2.56
2022-12-31T01:25:13.520Z,2.50
2022-12-31T01:27:11.783Z,2.44
2022-12-31T01:29:11.101Z,2.35
2022-12-31T01:31:12.581Z,2.31
2022-12-31T01:33:10.875Z,2.22
2022-12-31T01:35:09.867Z,2.15
2022-12-31T01:37:08.113Z,2.16
2022-12-31T01:39:08.031Z,2.14
2022-12-31T01:41:06.475Z,2.10
2022-12-31T01:43:04.846Z,2.06
2022-12-31T01:45:03.421Z,2.01
2022-12-31T01:47:05.286Z,1.95
2022-12-31T01:49:10.308Z,1.87
2022-12-31T01:51:10.904Z,1.87
2022-12-31T01:53:12.113Z,1.89
2022-12-31T01:55:16.177Z,1.90
2022-12-31T01:57:15.184Z,1.87
2022-12-31T01:59:17.552Z,1.83
2022-12-31T02:01:21.683Z,1.83
2022-12-31T02:03:22.820Z,1.86
2022-12-31T02:05:27.334Z,1.83
2022-12-31T02:07:25.917Z,1.80
2022-12-31T02:09:24.365Z,1.78
2022-12-31T02:11:26.196Z,1.79
2022-12-31T02:13:24.669Z,1.75
2022-12-31T02:15:30.994Z,1.75
2022-12-31T02:17:36.711Z,1.74
2022-12-31T02:20:01.387Z,1.81
2022-12-31T02:22:04.691Z,1.85
2022-12-31T02:24:33.578Z,1.86
2022-12-31T02:26:55.881Z,1.90
2022-12-31T02:29:23.141Z,1.92
2022-12-31T02:31:27.770Z,1.95
2022-12-31T02:33:33.375Z,1.96
2022-12-31T02:35:35.020Z,2.02
2022-12-31T02:37:35.616Z,2.06
2022-12-31T02:39:35.337Z,2.10
2022-12-31T02:41:51.769Z,2.13
2022-12-31T02:43:49.889Z,2.21
2022-12-31T02:45:53.393Z,2.32
2022-12-31T02:48:05.059Z,2.51
2022-12-31T02:50:34.354Z,2.66
2022-12-31T02:52:45.430Z,2.72
2022-12-31T02:54:50.530Z,2.72
2022-12-31T02:56:59.368Z,2.72
2022-12-31T02:59:21.798Z,2.58
2022-12-31T03:01:44.032Z,2.46
2022-12-31T03:03:44.187Z,2.34
2022-12-31T03:05:45.279Z,2.24
2022-12-31T03:07:44.994Z,2.17
2022-12-31T03:09:43.294Z,2.10
2022-12-31T03:11:59.364Z,2.06
2022-12-31T03:13:57.543Z,1.98
2022-12-31T03:15:55.939Z,1.95
2022-12-31T03:17:57.812Z,1.88
2022-12-31T03:20:15.147Z,1.79
2022-12-31T03:22:28.671Z,1.71
2022-12-31T03:24:44.211Z,1.65
2022-12-31T03:26:42.602Z,1.61
2022-12-31T03:28:42.631Z,1.60
2022-12-31T03:30:43.284Z,1.60
2022-12-31T03:32:41.836Z,1.59
2022-12-31T03:34:40.168Z,1.51
2022-12-31T03:36:40.017Z,1.47
2022-12-31T03:38:38.800Z,1.44
2022-12-31T03:40:39.958Z,1.37
2022-12-31T03:42:38.516Z,1.35
2022-12-31T03:44:36.809Z,1.34
2022-12-31T03:46:35.028Z,1.30
2022-12-31T03:48:33.372Z,1.27
2022-12-31T03:50:31.813Z,1.25
2022-12-31T03:52:31.369Z,1.26
2022-12-31T03:54:29.832Z,1.25
2022-12-31T03:56:27.887Z,1.19
2022-12-31T03:58:26.171Z,1.16
2022-12-31T04:00:24.398Z,1.14
2022-12-31T04:02:28.582Z,1.13
2022-12-31T04:04:27.660Z,1.13
2022-12-31T04:06:26.538Z,1.09
2022-12-31T04:08:26.489Z,1.07
2022-12-31T04:10:24.637Z,1.03
2022-12-31T04:12:22.972Z,1.00
2022-12-31T04:14:21.258Z,0.88
2022-12-31T04:16:19.468Z,0.82
2022-12-31T04:18:17.660Z,0.79
2022-12-31T04:20:16.594Z,0.80
2022-12-31T04:22:14.819Z,0.81
2022-12-31T04:24:14.499Z,0.78
2022-12-31T04:26:12.635Z,0.78
2022-12-31T04:28:11.032Z,0.77
2022-12-31T04:30:10.422Z,0.73
2022-12-31T04:32:09.532Z,0.76
2022-12-31T04:34:07.824Z,0.75
2022-12-31T04:36:07.819Z,0.78
2022-12-31T04:38:06.741Z,0.76
2022-12-31T04:40:07.638Z,0.77
2022-12-31T04:42:05.848Z,0.70
2022-12-31T04:44:04.286Z,0.73
2022-12-31T04:46:02.480Z,0.80
2022-12-31T04:48:00.649Z,0.80
2022-12-31T04:49:58.845Z,0.81
2022-12-31T04:51:56.985Z,0.80
2022-12-31T04:53:55.202Z,0.75
2022-12-31T04:55:54.855Z,0.69
2022-12-31T04:57:53.017Z,0.66
2022-12-31T04:59:51.270Z,0.71
2022-12-31T05:01:49.668Z,0.66
2022-12-31T05:03:48.123Z,0.63
2022-12-31T05:05:46.465Z,0.58
2022-12-31T05:07:44.622Z,0.56
2022-12-31T05:09:44.677Z,0.50
2022-12-31T05:11:44.301Z,0.44
2022-12-31T05:13:44.254Z,0.45
2022-12-31T05:15:43.094Z,0.47
2022-12-31T05:17:41.389Z,0.42
2022-12-31T05:19:39.655Z,0.41
2022-12-31T05:21:37.841Z,0.42
2022-12-31T05:23:35.917Z,0.42
2022-12-31T05:25:34.532Z,0.41
2022-12-31T05:27:34.064Z,0.44
2022-12-31T05:29:32.401Z,0.46
2022-12-31T05:31:30.660Z,0.45
2022-12-31T05:33:28.846Z,0.43
2022-12-31T05:35:27.102Z,0.37
2022-12-31T05:37:25.413Z,0.38
2022-12-31T05:39:23.529Z,0.37
2022-12-31T05:41:22.826Z,0.40
2022-12-31T05:43:22.487Z,0.43
2022-12-31T05:45:25.251Z,0.42
2022-12-31T05:47:27.115Z,0.39
2022-12-31T05:49:25.481Z,0.47
2022-12-31T05:51:23.670Z,0.51
2022-12-31T05:53:22.009Z,0.47
2022-12-31T05:55:20.327Z,0.51
2022-12-31T05:57:18.573Z,0.48
2022-12-31T05:59:18.068Z,0.42
2022-12-31T06:01:16.372Z,0.41
2022-12-31T06:03:14.777Z,0.43
2022-12-31T06:05:13.049Z,0.42
2022-12-31T06:07:11.262Z,0.39
2022-12-31T06:09:09.420Z,0.38
2022-12-31T06:11:07.674Z,0.42
2022-12-31T06:13:05.924Z,0.51
2022-12-31T06:15:07.280Z,0.58
2022-12-31T06:17:05.495Z,0.76
2022-12-31T06:19:03.991Z,1.07
2022-12-31T06:21:02.454Z,1.38
2022-12-31T06:23:01.177Z,1.80
2022-12-31T06:24:59.411Z,1.99
2022-12-31T06:26:57.779Z,2.07
2022-12-31T06:28:55.927Z,2.11
2022-12-31T06:31:00.727Z,1.92
2022-12-31T06:32:58.939Z,1.70
2022-12-31T06:34:57.021Z,1.62
2022-12-31T06:36:55.297Z,1.60
2022-12-31T06:38:53.544Z,1.55
2022-12-31T06:40:51.911Z,1.49
2022-12-31T06:42:54.626Z,1.47
2022-12-31T06:44:55.936Z,1.43
2022-12-31T06:46:55.703Z,1.52
2022-12-31T06:48:54.031Z,1.53
2022-12-31T06:50:52.336Z,1.56
2022-12-31T06:52:50.406Z,1.58
2022-12-31T06:54:49.410Z,1.62
2022-12-31T06:56:48.215Z,1.73
2022-12-31T06:58:47.214Z,1.81
2022-12-31T07:00:55.091Z,1.87
2022-12-31T07:03:10.923Z,1.96
2022-12-31T07:05:20.864Z,2.01
2022-12-31T07:07:27.351Z,2.10
2022-12-31T07:09:34.393Z,2.25
2022-12-31T07:11:40.535Z,2.24
2022-12-31T07:14:08.650Z,2.27
2022-12-31T07:16:21.692Z,2.38
2022-12-31T07:18:31.540Z,2.48
2022-12-31T07:20:31.189Z,2.59
2022-12-31T07:22:30.024Z,2.67
2022-12-31T07:24:29.247Z,2.71
2022-12-31T07:26:43.851Z,2.93
2022-12-31T07:28:54.767Z,3.10
2022-12-31T07:31:02.906Z,3.29
2022-12-31T07:33:22.069Z,3.41
2022-12-31T07:35:35.325Z,3.56
2022-12-31T07:37:44.856Z,3.60
2022-12-31T07:39:55.532Z,3.53
2022-12-31T07:42:00.865Z,3.52
2022-12-31T07:44:08.527Z,3.58
2022-12-31T07:46:14.416Z,3.62
2022-12-31T07:48:23.526Z,3.60
2022-12-31T07:50:23.727Z,3.70
2022-12-31T07:52:22.835Z,3.88
2022-12-31T07:54:21.273Z,3.86
2022-12-31T07:56:19.544Z,4.08
2022-12-31T07:58:23.067Z,4.21
2022-12-31T08:00:22.011Z,4.44
2022-12-31T08:02:35.322Z,4.60
2022-12-31T08:04:43.732Z,4.71
2022-12-31T08:06:51.841Z,4.76
2022-12-31T08:09:00.215Z,4.67
2022-12-31T08:11:09.994Z,4.69
2022-12-31T08:13:12.263Z,4.72
2022-12-31T08:15:15.535Z,4.89
2022-12-31T08:17:15.439Z,5.04
2022-12-31T08:19:25.963Z,5.11
2022-12-31T08:21:37.105Z,5.27
2022-12-31T08:23:43.825Z,5.39
2022-12-31T08:26:00.588Z,5.54
2022-12-31T08:28:09.075Z,5.60
2022-12-31T08:30:11.309Z,5.78
2022-12-31T08:32:17.241Z,5.84
2022-12-31T08:34:24.193Z,5.87
2022-12-31T08:36:29.713Z,5.84
2022-12-31T08:38:34.931Z,5.81
2022-12-31T08:40:44.982Z,5.76
2022-12-31T08:42:52.709Z,5.88
2022-12-31T08:45:01.787Z,6.07
2022-12-31T08:47:10.395Z,6.32
2022-12-31T08:49:10.925Z,7.37
2022-12-31T08:51:15.675Z,9.54
2022-12-31T08:53:14.238Z,12.24
2022-12-31T08:55:16.373Z,13.87
2022-12-31T08:57:33.720Z,15.96
2022-12-31T08:59:47.035Z,15.96
2022-12-31T09:02:02.337Z,16.03
2022-12-31T09:04:12.759Z,16.95
2022-12-31T09:06:20.375Z,16.73
2022-12-31T09:08:26.021Z,17.31
2022-12-31T09:10:30.024Z,17.35
2022-12-31T09:12:39.217Z,18.41
2022-12-31T09:14:48.300Z,17.41
2022-12-31T09:16:57.308Z,18.05
2022-12-31T09:18:55.543Z,18.07
2022-12-31T09:20:59.057Z,18.41
2022-12-31T09:22:58.512Z,17.89
2022-12-31T09:24:57.241Z,17.84
2022-12-31T09:27:05.945Z,17.46
2022-12-31T09:29:11.562Z,17.38
2022-12-31T09:31:14.747Z,17.10
2022-12-31T09:33:17.942Z,17.16
2022-12-31T09:35:23.816Z,16.79
2022-12-31T09:37:30.302Z,17.24
2022-12-31T09:39:38.342Z,18.27
2022-12-31T09:42:05.832Z,18.73
2022-12-31T09:45:00.151Z,19.57
2022-12-31T09:47:39.114Z,18.77
2022-12-31T09:50:13.933Z,17.89
2022-12-31T09:52:22.359Z,16.90
2022-12-31T09:54:34.904Z,17.40
2022-12-31T09:56:37.585Z,16.97
2022-12-31T09:58:46.002Z,17.51
2022-12-31T10:00:52.860Z,18.56
2022-12-31T10:03:16.675Z,17.89
2022-12-31T10:05:36.836Z,18.55
2022-12-31T10:07:52.816Z,18.12
2022-12-31T10:10:00.990Z,18.45
2022-12-31T10:12:28.371Z,19.58
2022-12-31T10:14:47.391Z,20.34
2022-12-31T10:17:03.360Z,19.21
2022-12-31T10:19:47.332Z,19.49
2022-12-31T10:21:54.878Z,18.51
2022-12-31T10:24:21.338Z,19.62
2022-12-31T10:26:38.115Z,20.52
2022-12-31T10:28:47.830Z,20.83
2022-12-31T10:30:54.962Z,20.66
2022-12-31T10:33:08.331Z,20.10
2022-12-31T10:35:21.135Z,20.64
2022-12-31T10:37:24.374Z,20.91
2022-12-31T10:39:34.470Z,19.71
2022-12-31T10:41:58.524Z,20.58
2022-12-31T10:44:33.034Z,20.00
2022-12-31T10:46:48.912Z,20.32
2022-12-31T10:49:22.395Z,19.85
2022-12-31T10:51:40.384Z,19.18
2022-12-31T10:54:30.360Z,20.07
2022-12-31T10:56:54.641Z,19.47
2022-12-31T10:59:24.114Z,19.92
2022-12-31T11:01:33.871Z,19.53
2022-12-31T11:04:00.052Z,19.24
2022-12-31T11:06:41.839Z,18.63
2022-12-31T11:09:19.219Z,19.41
2022-12-31T11:11:28.527Z,19.61
2022-12-31T11:13:57.394Z,20.35
2022-12-31T11:16:09.619Z,20.37
2022-12-31T11:18:19.065Z,19.44
2022-12-31T11:20:32.981Z,19.72
2022-12-31T11:22:49.153Z,19.35
2022-12-31T11:25:04.495Z,19.12
2022-12-31T11:27:18.981Z,17.43
2022-12-31T11:29:25.576Z,15.64
2022-12-31T11:31:43.302Z,13.79
2022-12-31T11:33:59.271Z,12.97
2022-12-31T11:36:10.385Z,12.50
2022-12-31T11:38:23.933Z,12.24
2022-12-31T11:40:48.515Z,11.98
2022-12-31T11:42:56.503Z,11.81
2022-12-31T11:45:00.872Z,11.70
2022-12-31T11:47:14.174Z,11.57
2022-12-31T11:49:40.667Z,11.31
2022-12-31T11:52:03.968Z,11.23
2022-12-31T11:54:36.150Z,11.15
2022-12-31T11:56:38.584Z,11.14
2022-12-31T11:58:36.960Z,11.30
2022-12-31T12:00:36.223Z,11.39
2022-12-31T12:02:37.579Z,11.34
2022-12-31T12:04:36.077Z,11.39
2022-12-31T12:06:34.486Z,11.40
2022-12-31T12:08:34.924Z,11.27
2022-12-31T12:10:39.668Z,11.27
2022-12-31T12:12:41.337Z,11.44
2022-12-31T12:14:41.928Z,11.52
2022-12-31T12:16:40.277Z,11.53
2022-12-31T12:18:43.618Z,11.49
2022-12-31T12:20:45.298Z,11.47
2022-12-31T12:22:51.492Z,11.28
2022-12-31T12:24:55.285Z,11.29
2022-12-31T12:26:55.353Z,11.33
2022-12-31T12:28:53.943Z,11.36
2022-12-31T12:33:18.192Z,11.48
2022-12-31T12:35:18.472Z,11.52
2022-12-31T12:37:32.400Z,11.52
2022-12-31T12:39:32.624Z,11.54
2022-12-31T12:41:31.179Z,11.40
2022-12-31T12:43:32.378Z,11.37
2022-12-31T12:45:40.568Z,11.27
2022-12-31T12:47:39.025Z,11.27
2022-12-31T12:49:40.892Z,11.29
2022-12-31T12:51:55.806Z,11.31
2022-12-31T12:54:02.812Z,11.35
2022-12-31T12:56:13.332Z,11.42
2022-12-31T12:58:27.850Z,11.39
2022-12-31T13:00:32.023Z,11.53
2022-12-31T13:03:08.330Z,11.55
2022-12-31T13:05:27.661Z,11.44
2022-12-31T13:07:42.219Z,11.34
2022-12-31T13:09:54.131Z,11.23
2022-12-31T13:12:07.721Z,11.15
2022-12-31T13:14:18.733Z,11.06
2022-12-31T13:16:25.547Z,11.01
2022-12-31T13:18:38.565Z,11.04
2022-12-31T13:20:42.549Z,11.00
2022-12-31T13:22:45.975Z,10.99
2022-12-31T13:24:52.964Z,11.09
2022-12-31T13:26:58.636Z,11.05
2022-12-31T13:28:58.116Z,11.10
2022-12-31T13:31:06.530Z,11.19
2022-12-31T13:33:15.856Z,11.12
2022-12-31T13:35:26.618Z,11.03
2022-12-31T13:37:53.690Z,11.02
2022-12-31T13:39:57.843Z,11.05
2022-12-31T13:42:02.333Z,11.04
2022-12-31T13:44:10.378Z,10.94
2022-12-31T13:46:19.798Z,10.88
2022-12-31T13:48:26.116Z,10.85
2022-12-31T13:50:29.666Z,10.85
2022-12-31T13:52:35.794Z,10.78
2022-12-31T13:54:42.658Z,10.79
2022-12-31T13:56:43.823Z,10.78
2022-12-31T13:58:47.084Z,10.78
2022-12-31T14:00:49.068Z,10.73
2022-12-31T14:02:55.060Z,10.72
2022-12-31T14:05:00.454Z,10.74
2022-12-31T14:07:04.383Z,10.77
2022-12-31T14:09:03.013Z,10.81
2022-12-31T14:11:08.022Z,10.90
2022-12-31T14:13:20.857Z,10.92
2022-12-31T14:15:24.955Z,10.89
2022-12-31T14:17:32.976Z,10.81
2022-12-31T14:19:46.391Z,10.73
2022-12-31T14:21:50.223Z,10.68
2022-12-31T14:23:54.375Z,10.61
2022-12-31T14:25:57.072Z,10.61
2022-12-31T14:27:57.587Z,10.62
2022-12-31T14:30:00.189Z,10.64
2022-12-31T14:32:20.312Z,10.54
2022-12-31T14:34:27.007Z,10.43
2022-12-31T14:36:40.647Z,10.31
2022-12-31T14:38:52.571Z,10.15
2022-12-31T14:41:03.955Z,10.11
2022-12-31T14:43:13.304Z,10.20
2022-12-31T14:45:29.028Z,10.16
2022-12-31T14:47:38.697Z,10.11
2022-12-31T14:49:47.858Z,10.05
2022-12-31T14:51:46.308Z,9.99
2022-12-31T14:53:56.829Z,9.81
2022-12-31T14:55:59.933Z,9.64
2022-12-31T14:58:27.329Z,9.54
2022-12-31T15:00:30.581Z,9.38
2022-12-31T15:02:31.004Z,9.19
2022-12-31T15:04:42.955Z,9.02
2022-12-31T15:06:59.575Z,8.85
2022-12-31T15:09:08.565Z,8.72
2022-12-31T15:11:19.321Z,8.59
2022-12-31T15:13:29.130Z,8.41
2022-12-31T15:15:50.165Z,8.27
2022-12-31T15:18:02.832Z,8.26
2022-12-31T15:20:20.331Z,8.18
2022-12-31T15:22:36.104Z,8.12
2022-12-31T15:24:35.925Z,7.94
2022-12-31T15:26:50.998Z,7.87
2022-12-31T15:28:58.387Z,7.79
2022-12-31T15:31:02.548Z,7.78
2022-12-31T15:33:04.521Z,7.88
2022-12-31T15:35:05.017Z,7.83
2022-12-31T15:37:06.572Z,7.83
2022-12-31T15:39:25.897Z,8.01
2022-12-31T15:41:37.593Z,8.00
2022-12-31T15:43:45.143Z,8.00
2022-12-31T15:45:44.285Z,7.82
2022-12-31T15:47:47.112Z,7.67
2022-12-31T15:49:47.993Z,7.54
2022-12-31T15:51:49.580Z,7.39
2022-12-31T15:53:53.202Z,7.25
2022-12-31T15:55:54.947Z,7.17
2022-12-31T15:57:57.885Z,7.12
2022-12-31T15:59:59.501Z,7.07
2022-12-31T16:01:58.511Z,7.02
2022-12-31T16:03:59.079Z,6.96
2022-12-31T16:06:02.029Z,6.93
2022-12-31T16:08:01.213Z,6.86
2022-12-31T16:10:03.845Z,6.82
2022-12-31T16:12:03.745Z,6.81
2022-12-31T16:14:04.786Z,6.74
2022-12-31T16:16:19.911Z,6.69
2022-12-31T16:18:22.741Z,6.61
2022-12-31T16:20:23.819Z,6.54
2022-12-31T16:22:27.238Z,6.43
2022-12-31T16:24:29.110Z,6.37
2022-12-31T16:26:33.503Z,6.36
2022-12-31T16:28:33.177Z,6.41
2022-12-31T16:30:35.862Z,6.38
2022-12-31T16:32:36.486Z,6.42
2022-12-31T16:34:38.519Z,6.35
2022-12-31T16:36:36.808Z,6.39
2022-12-31T16:38:35.922Z,6.35
2022-12-31T16:40:34.339Z,6.28
2022-12-31T16:42:32.630Z,6.16
2022-12-31T16:44:31.972Z,6.12
2022-12-31T16:46:33.380Z,6.04
2022-12-31T16:48:31.688Z,6.06
2022-12-31T16:50:30.673Z,5.94
2022-12-31T16:52:33.222Z,5.86
2022-12-31T16:54:35.579Z,5.84
2022-12-31T16:56:37.663Z,5.80
2022-12-31T16:58:38.433Z,5.81
2022-12-31T17:00:37.837Z,5.79
2022-12-31T17:02:41.819Z,5.85
2022-12-31T17:04:47.000Z,5.72
2022-12-31T17:06:50.964Z,5.61
2022-12-31T17:09:03.603Z,5.58
2022-12-31T17:11:04.695Z,5.54
2022-12-31T17:15:27.041Z,5.35
2022-12-31T17:17:28.708Z,5.33
2022-12-31T17:19:38.880Z,5.40
2022-12-31T17:21:37.157Z,5.39
2022-12-31T17:23:37.825Z,5.36
2022-12-31T17:25:38.233Z,5.34
2022-12-31T17:27:37.632Z,5.45
2022-12-31T17:29:36.591Z,5.47
2022-12-31T17:31:36.973Z,5.37
2022-12-31T17:33:35.356Z,5.32
2022-12-31T17:35:36.809Z,5.25
2022-12-31T17:37:35.770Z,5.19
2022-12-31T17:39:48.236Z,5.15
2022-12-31T17:41:47.679Z,5.01
2022-12-31T17:43:46.203Z,4.96
2022-12-31T17:45:47.315Z,4.88
2022-12-31T17:47:51.025Z,4.88
2022-12-31T17:49:49.297Z,4.93
2022-12-31T17:51:49.202Z,4.88
2022-12-31T17:53:47.557Z,4.90
2022-12-31T17:55:48.281Z,4.88
2022-12-31T17:57:51.866Z,4.80
2022-12-31T17:59:50.163Z,4.74
2022-12-31T18:01:49.420Z,4.62
2022-12-31T18:03:48.987Z,4.51
2022-12-31T18:05:47.472Z,4.55
2022-12-31T18:07:47.225Z,4.54
2022-12-31T18:09:45.422Z,4.55
2022-12-31T18:11:43.801Z,4.52
2022-12-31T18:13:41.995Z,4.58
2022-12-31T18:15:41.491Z,4.53
2022-12-31T18:17:39.767Z,4.42
2022-12-31T18:20:03.616Z,4.38
2022-12-31T18:22:00.422Z,4.25
2022-12-31T18:25:58.223Z,4.12
2022-12-31T18:27:56.369Z,4.12
2022-12-31T18:29:59.106Z,4.10
2022-12-31T18:32:02.455Z,4.06
2022-12-31T18:34:00.817Z,4.00
2022-12-31T18:36:14.494Z,4.09
2022-12-31T18:38:14.788Z,4.14
2022-12-31T18:40:15.292Z,4.09
2022-12-31T18:42:14.898Z,4.06
2022-12-31T18:44:14.945Z,4.00
2022-12-31T18:46:14.268Z,4.02
2022-12-31T18:48:13.407Z,3.93
2022-12-31T18:50:15.139Z,3.93
2022-12-31T18:52:14.570Z,4.04
2022-12-31T18:54:17.869Z,4.06
2022-12-31T18:56:19.605Z,4.01
2022-12-31T18:58:17.810Z,4.00
2022-12-31T19:00:16.696Z,4.09
2022-12-31T19:02:19.330Z,4.03
2022-12-31T19:04:26.504Z,3.98
2022-12-31T19:06:26.226Z,3.94
2022-12-31T19:08:24.897Z,3.94
2022-12-31T19:10:23.404Z,3.88
2022-12-31T19:12:23.195Z,3.85
2022-12-31T19:14:24.777Z,3.82
2022-12-31T19:16:22.998Z,3.79
2022-12-31T19:18:21.355Z,3.71
2022-12-31T19:20:26.463Z,3.71
2022-12-31T19:22:24.925Z,3.66
2022-12-31T19:24:26.750Z,3.61
2022-12-31T19:26:25.020Z,3.51
2022-12-31T19:28:26.989Z,3.44
2022-12-31T19:30:27.565Z,3.46
2022-12-31T19:32:25.740Z,3.38
2022-12-31T19:34:23.921Z,3.40
2022-12-31T19:36:22.337Z,3.43
2022-12-31T19:38:23.146Z,3.37
2022-12-31T19:40:23.956Z,3.31
2022-12-31T19:42:22.237Z,3.39
2022-12-31T19:44:21.993Z,3.35
2022-12-31T19:46:20.631Z,3.31
2022-12-31T19:48:25.798Z,3.38
2022-12-31T19:50:29.447Z,3.43
2022-12-31T19:52:27.713Z,3.41
2022-12-31T19:54:25.983Z,3.33
2022-12-31T19:56:24.148Z,3.24
2022-12-31T19:58:25.682Z,3.23
2022-12-31T20:00:25.418Z,3.09
2022-12-31T20:02:23.794Z,3.09
2022-12-31T20:04:22.564Z,3.03
2022-12-31T20:06:20.931Z,3.01
2022-12-31T20:08:20.426Z,2.94
2022-12-31T20:10:18.737Z,2.86
2022-12-31T20:12:17.318Z,2.87
2022-12-31T20:14:15.652Z,2.81
2022-12-31T20:16:17.140Z,2.81
2022-12-31T20:18:21.028Z,2.82
2022-12-31T20:20:19.205Z,2.86
2022-12-31T20:22:17.600Z,2.89
2022-12-31T20:24:15.950Z,2.84
2022-12-31T20:26:14.232Z,2.88
2022-12-31T20:28:12.631Z,2.89
2022-12-31T20:30:12.767Z,2.90
2022-12-31T20:32:12.264Z,2.88
2022-12-31T20:34:11.615Z,2.93
2022-12-31T20:36:11.957Z,2.87
2022-12-31T20:38:10.725Z,2.88
2022-12-31T20:40:10.714Z,2.93
2022-12-31T20:42:08.907Z,2.95
2022-12-31T20:44:07.248Z,3.04
2022-12-31T20:46:14.423Z,2.98
2022-12-31T20:48:14.732Z,2.95
2022-12-31T20:50:13.104Z,2.93
2022-12-31T20:52:11.415Z,2.88
2022-12-31T20:54:11.714Z,2.89
2022-12-31T20:56:10.494Z,2.87
2022-12-31T20:58:08.658Z,2.79
2022-12-31T21:00:12.328Z,2.79
2022-12-31T21:02:29.563Z,2.77
2022-12-31T21:04:35.094Z,2.75
2022-12-31T21:06:34.252Z,2.69
2022-12-31T21:08:35.031Z,2.63
2022-12-31T21:10:34.688Z,2.58
2022-12-31T21:12:43.886Z,2.56
2022-12-31T21:14:44.868Z,2.52
2022-12-31T21:16:43.307Z,2.42
2022-12-31T21:18:41.515Z,2.35
2022-12-31T21:20:41.064Z,2.33
2022-12-31T21:22:39.536Z,2.37
2022-12-31T21:24:39.243Z,2.39
2022-12-31T21:26:37.909Z,2.44
2022-12-31T21:28:36.158Z,2.67
2022-12-31T21:30:34.773Z,2.85
2022-12-31T21:32:32.906Z,2.80
2022-12-31T21:34:31.156Z,2.67
2022-12-31T21:36:30.634Z,2.56
2022-12-31T21:38:29.885Z,2.50
2022-12-31T21:40:28.210Z,2.44
2022-12-31T21:42:26.400Z,2.44
2022-12-31T21:44:26.103Z,2.50
2022-12-31T21:46:24.507Z,2.51
2022-12-31T21:48:22.123Z,2.55
2022-12-31T21:50:20.506Z,2.60
2022-12-31T21:52:30.802Z,2.64
2022-12-31T21:54:46.276Z,2.64
2022-12-31T21:56:44.479Z,2.62
2022-12-31T21:58:44.309Z,2.65
2022-12-31T22:01:00.043Z,2.68
2022-12-31T22:03:16.163Z,2.73
2022-12-31T22:05:21.412Z,2.79
2022-12-31T22:07:24.578Z,2.65
2022-12-31T22:09:22.907Z,2.55
2022-12-31T22:11:22.670Z,2.44
2022-12-31T22:13:20.933Z,2.35
2022-12-31T22:15:19.209Z,2.29
2022-12-31T22:17:17.513Z,2.22
2022-12-31T22:19:15.756Z,2.26
2022-12-31T22:21:19.385Z,2.20
2022-12-31T22:23:19.691Z,2.15
2022-12-31T22:25:17.997Z,2.14
2022-12-31T22:27:28.816Z,2.25
2022-12-31T22:29:28.069Z,2.24
2022-12-31T22:31:29.032Z,2.26
2022-12-31T22:33:27.393Z,2.25
2022-12-31T22:35:25.897Z,2.14
2022-12-31T22:39:45.076Z,2.00
2022-12-31T22:41:43.605Z,1.95
2022-12-31T22:43:44.070Z,1.93
2022-12-31T22:45:42.175Z,1.91
2022-12-31T22:47:40.398Z,1.84
2022-12-31T22:49:38.552Z,1.81
2022-12-31T22:51:56.859Z,1.77
2022-12-31T22:53:55.049Z,1.79
2022-12-31T22:55:56.508Z,1.77
2022-12-31T22:57:54.866Z,1.78
2022-12-31T22:59:53.093Z,1.79
2022-12-31T23:01:51.452Z,1.84
2022-12-31T23:03:51.481Z,1.91
2022-12-31T23:05:51.492Z,1.88
2022-12-31T23:07:49.933Z,1.81
2022-12-31T23:10:05.312Z,1.79
2022-12-31T23:12:07.084Z,1.77
2022-12-31T23:14:23.344Z,1.82
2022-12-31T23:16:38.921Z,1.78
2022-12-31T23:18:54.339Z,1.68
2022-12-31T23:21:10.053Z,1.60
2022-12-31T23:23:10.053Z,1.57
2022-12-31T23:25:09.047Z,1.53
2022-12-31T23:27:09.673Z,1.50
2022-12-31T23:29:07.999Z,1.49
2022-12-31T23:31:07.360Z,1.53
2022-12-31T23:33:05.807Z,1.52
2022-12-31T23:35:09.558Z,1.57
2022-12-31T23:37:08.322Z,1.56
2022-12-31T23:39:06.679Z,1.50
2022-12-31T23:41:13.136Z,1.52
2022-12-31T23:43:20.907Z,1.46
2022-12-31T23:45:19.100Z,1.43
2022-12-31T23:47:17.345Z,1.50
2022-12-31T23:49:15.586Z,1.62
2022-12-31T23:51:13.709Z,1.61
2022-12-31T23:53:11.948Z,1.64
2022-12-31T23:55:10.518Z,1.62
2022-12-31T23:57:08.774Z,1.61
2022-12-31T23:59:08.526Z,1.56
